x

Ne St Martin - 330 Nm Ne St Martin Is (41044) Wave Buoy

12:50am - Tue 24th Jan 2017 All times are UTC.

  • Sig Wave height 6.9ft
  • Swell Direction
  • Peak Period 15s
  • Average Period 10s
  • Wind
    9mph, 13mph gusts
  • Sea Temp 78°f
  • Air Temp 77°f
  • Sea Pressure 1017.1mb

More Historic Weather Station data

Upgrade to MSW Pro to gain access to the past 30 days of data for over 8000 Wavebouys and Weather Stations around the globe.

Join Pro

Comparision Forecast

View Surf forecast
   
Tue 01/24 12:50am 7ft 15s 10s 9 13 mph 1017.1mb 78f 77f
12:40am  -   -   -  9 13 mph 1017.1mb 78f 77f
12:30am  -   -   -  9 11 mph 1017mb 78f 77f
12:20am  -   -   -  9 11 mph 1017mb 78f 76f
12:10am  -   -   -  9 11 mph 1017mb 78f 77f
12:00am  -   -   -  7 9 mph 1016.9mb 78f 76f
Mon 01/23 11:50pm 7.5ft 14s 11s 7 9 mph 1016.9mb 78f 76f
11:40pm 7.5ft  -  11s 7 9 mph 1016.8mb 78f 76f
11:30pm  -   -   -  7 11 mph 1016.8mb 78f 76f
11:20pm  -   -   -  9 11 mph 1016.6mb 78f 76f
11:10pm  -   -   -  9 11 mph 1016.5mb 78f 76f
11:00pm  -   -   -  9 11 mph 1016.4mb 78f 76f
10:50pm 6.5ft 13s 10s 9 11 mph 1016.3mb 78f 76f
10:40pm 6.5ft  -  10s 9 11 mph 1016.3mb 78f 76f
10:30pm  -   -   -  9 11 mph 1016mb 78f 76f
10:20pm  -   -   -  9 13 mph 1016mb 78f 76f
10:10pm  -   -   -  9 11 mph 1016mb 78f 76f
10:00pm  -   -   -  7 11 mph 1015.9mb 78f 76f
9:50pm 6.5ft 12s 10s 7 9 mph 1015.8mb 78f 76f
9:40pm 6.5ft  -  10s 7 9 mph 1015.6mb 78f 77f
9:30pm  -   -   -  7 9 mph 1015.8mb 78f 76f
9:20pm  -   -   -  7 11 mph 1015.5mb 78f 76f
9:10pm  -   -   -  7 11 mph 1015.5mb 78f 76f
9:00pm  -   -   -  7 9 mph 1015.5mb 78f 77f
8:50pm 7ft 14s 10s 7 11 mph 1015.5mb 78f 77f
8:40pm 7ft  -  10s 9 11 mph 1015.4mb 78f 77f
8:30pm  -   -   -  7 11 mph 1015.4mb 78f 77f
8:20pm  -   -   -  7 9 mph 1015.3mb 78f 76f
8:10pm  -   -   -  7 11 mph 1015.3mb 78f 77f
8:00pm  -   -   -  9 11 mph 1015.1mb 78f 77f
7:50pm 7ft 14s 9s 9 13 mph 1015mb 78f 77f
7:40pm  -   -   -  9 13 mph 1015mb 78f 77f
7:30pm  -   -   -  9 13 mph 1014.9mb 78f 77f
7:20pm  -   -   -  9 13 mph 1014.9mb 78f 77f
7:10pm  -   -   -  13 18 mph 1014.6mb 78f 77f
7:00pm  -   -   -  11 18 mph 1014.5mb 78f 76f
6:50pm 7ft 14s 9s 13 18 mph 1014.6mb 78f 76f
6:40pm  -   -   -  16 22 mph 1014.9mb 78f 75f
6:30pm  -   -   -  18 22 mph 1014.9mb 78f 75f
6:20pm  -   -   -  13 20 mph 1014.9mb 78f 75f
6:10pm  -   -   -  11 18 mph 1014.9mb 78f 75f
6:00pm  -   -   -  11 16 mph 1014.9mb 78f 76f
5:50pm 7ft 14s 10s 11 16 mph 1015mb 78f 75f
5:40pm 7ft  -  10s 11 16 mph 1015mb 78f 75f
5:30pm  -   -   -  11 18 mph 1015.3mb 78f 76f
5:20pm  -   -   -  11 18 mph 1015.4mb 78f 76f
5:10pm  -   -   -  11 16 mph 1015.5mb 78f 76f
5:00pm  -   -   -  11 13 mph 1015.5mb 78f 76f
4:50pm 7.5ft 13s 10s 11 13 mph 1015.6mb 78f 76f
4:40pm 7.5ft  -  10s 11 13 mph 1015.9mb 78f 76f
4:30pm  -   -   -  11 16 mph 1016mb 78f 76f
4:20pm  -   -   -  11 16 mph 1016.1mb 78f 76f
4:10pm  -   -   -  13 18 mph 1016.4mb 78f 76f
4:00pm  -   -   -  11 16 mph 1016.5mb 78f 75f
3:50pm 7ft 13s 10s 11 16 mph 1016.6mb 78f 75f
3:40pm 7ft  -  10s 13 18 mph 1016.8mb 78f 76f
3:30pm  -   -   -  13 20 mph 1016.8mb 78f 76f
3:20pm  -   -   -  9 16 mph 1017mb 78f 77f
3:10pm  -   -   -  9 11 mph 1017.1mb 78f 76f
3:00pm  -   -   -  7 11 mph 1017.3mb 78f 76f
2:50pm 7ft 13s 10s 7 11 mph 1017.3mb 78f 76f
2:40pm  -   -   -  7 9 mph 1017.5mb 78f 76f
2:30pm  -   -   -  7 9 mph 1017.5mb 78f 76f
2:20pm  -   -   -  7 9 mph 1017.5mb 78f 76f
2:10pm  -   -   -  4 9 mph 1017.5mb 78f 76f
2:00pm  -   -   -  7 9 mph 1017.5mb 78f 76f
1:40pm 7ft  -  10s 4 9 mph 1017.5mb 78f 76f
1:10pm  -   -   -  2 7 mph 1017.5mb - 76f
1:00pm  -   -   -  2 7 mph 1017.4mb 78f 76f
12:50pm 8ft 13s 10s 2 4 mph 1017.3mb 78f 75f
12:40pm  -   -   -  4 7 mph 1017.1mb 78f 75f
12:30pm  -   -   -  2 7 mph 1017mb 78f 75f
12:20pm  -   -   -  2 11 mph 1017mb 78f 75f
12:10pm  -   -   -  11 18 mph 1017mb 78f 75f
12:00pm  -   -   -  11 20 mph 1017.3mb - 75f
11:50am 7.5ft 14s 9s 9 18 mph 1016.6mb 78f 75f
11:40am  -   -   -  9 13 mph 1016.5mb 78f 75f
11:30am  -   -   -  9 16 mph 1016.5mb 78f 74f
11:20am  -   -   -  7 11 mph 1016.4mb 78f 74f
11:10am  -   -   -  2 7 mph 1016.3mb 78f 74f
11:00am  -   -   -  4 9 mph 1016.1mb 78f 73f
10:50am 7ft 13s 10s 7 9 mph 1016mb 78f 73f
10:40am 7ft  -  10s 9 13 mph 1015.9mb 78f 73f
10:30am  -   -   -  11 18 mph 1015.8mb 78f 73f
10:20am  -   -   -  11 16 mph 1015.6mb 78f 74f
10:10am  -   -   -  11 20 mph 1015.5mb 78f 75f
10:00am  -   -   -  7 9 mph 1015.5mb 78f 75f
9:50am 8ft 14s 10s 4 9 mph 1015.3mb 78f 75f
9:40am 8ft  -  10s 4 7 mph 1015.1mb 78f 75f
9:30am  -   -   -  4 11 mph 1015mb 78f 75f
9:20am  -   -   -  7 11 mph 1014.9mb 78f 75f
9:10am  -   -   -  4 9 mph 1014.8mb 78f 75f
9:00am  -   -   -  7 9 mph 1014.5mb 78f 76f
8:50am 7ft 14s 10s 7 9 mph 1014.5mb 78f 76f
8:40am 7ft  -  10s 4 9 mph 1014.5mb 78f 76f
8:30am  -   -   -  4 9 mph 1014.5mb 78f 76f
8:20am  -   -   -  7 9 mph 1014.5mb 78f 76f
8:10am  -   -   -  4 7 mph 1014.5mb 78f 76f
8:00am  -   -   -  4 9 mph 1014.5mb 78f 76f
7:50am 7ft 13s 9s 4 7 mph 1014.5mb 78f 76f
7:40am 7ft  -  9s 4 9 mph 1014.5mb 78f 76f
7:30am  -   -   -  4 7 mph 1014.5mb 78f 76f
7:20am  -   -   -  2 4 mph 1014.6mb 78f 76f
7:10am  -   -   -  2 4 mph 1014.6mb 78f 76f
7:00am  -   -   -  2 4 mph 1014.8mb 78f 76f
6:50am 7.5ft 13s 9s 4 7 mph 1014.8mb 78f 76f
6:40am 7.5ft  -  9s 4 7 mph 1014.9mb 78f 76f
6:30am  -   -   -  2 4 mph 1015mb 78f 76f
6:20am  -   -   -  4 7 mph 1015mb 78f 76f
6:10am  -   -   -  4 7 mph 1015.1mb 78f 76f
6:00am  -   -   -  4 7 mph 1015.1mb 78f 76f
5:50am 7.5ft 13s 10s 4 7 mph 1015.3mb 78f 76f
5:40am 7.5ft  -  10s 4 7 mph 1015.3mb 78f 76f
5:30am  -   -   -  4 7 mph 1015.3mb 78f 76f
5:20am  -   -   -  4 9 mph 1015.1mb 78f 76f
5:10am  -   -   -  4 9 mph 1015.3mb 78f 76f
5:00am  -   -   -  4 7 mph 1015.4mb 78f 76f
4:50am 7ft 11s 10s 4 7 mph 1015.5mb 78f 76f
4:40am 7ft  -  10s 4 7 mph 1015.5mb 78f 76f
4:30am  -   -   -  4 7 mph 1015.5mb 78f 76f
4:20am  -   -   -  4 7 mph 1015.8mb 78f 76f
4:10am  -   -   -  4 7 mph 1016mb 78f 76f
4:00am  -   -   -  4
mph
1016mb 78f 76f
3:50am 6.5ft 11s 9s 4 7 mph 1016mb 78f 76f
3:40am 6.5ft  -  9s 4 9 mph 1016mb 78f 76f
3:30am  -   -   -  4 7 mph 1016.1mb 78f 76f
3:20am  -   -   -  4 7 mph 1016.1mb 78f 76f
3:10am  -   -   -  4 9 mph 1016.1mb 78f 76f
3:00am  -   -   -  4 7 mph 1016.4mb 78f 76f
2:50am 7ft 11s 9s 4 7 mph 1016.4mb 78f 76f
2:40am 7ft  -  9s 4 7 mph 1016.5mb 78f 76f
2:30am  -   -   -  2 4 mph 1016.5mb 78f 75f
2:20am  -   -   -  2 4 mph 1016.5mb 78f 75f
2:10am  -   -   -  2 7 mph 1016.5mb 78f 75f
2:00am  -   -   -  2 7 mph 1016.5mb 78f 76f
1:50am 7ft 11s 9s 4 7 mph 1016.5mb 78f 76f
1:40am  -   -   -  4 9 mph 1016.5mb 78f 76f
1:30am  -   -   -  4 9 mph 1016.5mb 78f 76f
1:20am  -   -   -  2 4 mph 1017mb - 75f
1:10am  -   -   -  2 4 mph 1016.4mb 78f 75f
1:00am  -   -   -  2 7 mph 1016.4mb 78f 75f
12:50am 7ft 11s 9s 2 7 mph 1016.1mb 78f 74f
12:40am  -   -   -  4 7 mph 1016.3mb 78f 74f
12:30am  -   -   -  7 9 mph 1016.1mb 78f 74f
12:20am  -   -   -  7 11 mph 1016.1mb 78f 74f
12:10am  -   -   -  11 16 mph 1016mb 78f 74f
12:00am  -   -   -  4 13 mph 1016mb 78f 76f
Sun 01/22 11:50pm 7ft 12s 9s 4 7 mph 1015.9mb 78f 76f
11:40pm  -   -   -  4 7 mph 1015.8mb 78f 76f
11:30pm  -   -   -  4 7 mph 1015.5mb 78f 76f
11:20pm  -   -   -  4 7 mph 1015.4mb 78f 76f
11:10pm  -   -   -  4 9 mph 1015.3mb 78f 76f
11:00pm  -   -   -  4 7 mph 1015.1mb 79f 76f
10:50pm 7ft 12s 9s 4 7 mph 1015mb 79f 76f
10:40pm  -   -   -  4 7 mph 1015mb 79f 76f
10:30pm  -   -   -  2 7 mph 1014.9mb 79f 76f
10:20pm  -   -   -  2 4 mph 1014.9mb 79f 76f
10:10pm  -   -   -   -  4 mph 1014.8mb 79f 76f
10:00pm  -   -   -  2 4 mph 1014.9mb 79f 76f
9:50pm 7ft 12s 9s 2 4 mph 1014.8mb 79f 76f
9:40pm  -   -   -   -  4 mph 1014.6mb 79f 76f
9:30pm  -   -   -  2 4 mph 1014.6mb 79f 76f
9:20pm  -   -   -  2 4 mph 1014.5mb 79f 76f
9:10pm  -   -   -  2 4 mph 1014.6mb 79f 76f
9:00pm  -   -   -  2 4 mph 1014.6mb 79f 76f
8:50pm 6ft 9s 9s 2 4 mph 1014.5mb 79f 76f
8:40pm 6ft  -  9s 2 4 mph 1014.5mb 79f 76f
8:30pm  -   -   -  2 4 mph 1014.5mb 79f 76f
8:20pm  -   -   -  2 4 mph 1014.5mb 79f 76f
8:10pm  -   -   -  2 4 mph 1014.4mb 78f 77f
8:00pm  -   -   -  2 4 mph 1014.4mb 78f 77f
7:50pm 6ft 13s 9s 2 4 mph 1014.3mb 78f 77f
7:40pm 6ft  -  9s 4 7 mph 1014.3mb 78f 77f
7:30pm  -   -   -  2 4 mph 1014.3mb 79f 77f
7:20pm  -   -   -  2 7 mph 1014.3mb 79f 76f
7:10pm  -   -   -  2 4 mph 1014.3mb 79f 76f
7:00pm  -   -   -  2 4 mph 1014.3mb 79f 76f
6:50pm 6.5ft 13s 9s 2 4 mph 1014.3mb 78f 76f
6:40pm  -   -   -  2 4 mph 1014.3mb 78f 76f
6:30pm  -   -   -  2 4 mph 1014.3mb 78f 76f
6:20pm  -   -   -  2 7 mph 1014.4mb 78f 76f
6:10pm  -   -   -  2 4 mph 1014.5mb 78f 77f
6:00pm  -   -   -   -  4 mph 1014.5mb 78f 77f
5:50pm 6ft 13s 9s 2 4 mph 1014.9mb 78f 76f
5:40pm 6ft  -  9s 2 4 mph 1014.9mb 78f 76f
5:30pm  -   -   -   -  4 mph 1015mb 78f 77f
5:20pm  -   -   -  2 4 mph 1015mb 78f 77f
5:10pm  -   -   -  2 4 mph 1015.1mb 78f 76f
5:00pm  -   -   -  2 4 mph 1015.3mb 78f 77f
4:50pm 6ft 14s 9s 2 4 mph 1015.5mb 78f 77f
4:40pm 6ft  -  9s  -  2 mph 1015.5mb 78f 77f
4:30pm  -   -   -   -  4 mph 1015.8mb 78f 77f
4:20pm  -   -   -   -  4 mph 1015.9mb 78f 77f
4:10pm  -   -   -   -  2 mph 1016mb 78f 77f
4:00pm  -   -   -   -  2 mph 1016.3mb 78f 77f
3:50pm 6ft 10s 9s 2 4 mph 1016.3mb 78f 77f
3:40pm 6ft  -  9s 2 4 mph 1016.5mb 78f 77f
3:30pm  -   -   -  2 4 mph 1016.5mb 78f 76f
3:20pm  -   -   -  2 7 mph 1016.6mb 78f 76f
3:10pm  -   -   -  2 7 mph 1016.6mb 78f 76f
3:00pm  -   -   -  2 4 mph 1016.8mb 78f 76f
2:50pm 6.5ft 10s 9s 2 7 mph 1017mb 78f 76f
2:40pm 6.5ft  -  9s 2 4 mph 1017.1mb 78f 76f
2:30pm  -   -   -  2 4 mph 1017.1mb 78f 76f
2:20pm  -   -   -  2 4 mph 1017.3mb 78f 76f
2:10pm  -   -   -  2 4 mph 1017.3mb 78f 76f
2:00pm  -   -   -  2 4 mph 1017.4mb 78f 76f
1:50pm 6ft 10s 8s 2 4 mph 1017.4mb 78f 77f
1:40pm 6ft  -  8s 2 4 mph 1017.4mb 78f 76f
1:30pm  -   -   -  2 7 mph 1017.4mb 78f 76f
1:20pm  -   -   -  2 7 mph 1017.4mb 78f 76f
1:10pm  -   -   -  4 7 mph 1017.1mb - 76f
1:00pm  -   -   -  4 7 mph 1017mb 78f 76f
12:50pm 6ft 10s 9s 2 4 mph 1016.8mb 78f 76f
12:40pm 6ft  -  9s 4 7 mph 1016.5mb 78f 76f
12:30pm  -   -   -  4 7 mph 1016.5mb 78f 76f
12:20pm  -   -   -  4 7 mph 1016.1mb 78f 76f
12:10pm  -   -   -  4 7 mph 1016mb 78f 76f
12:00pm  -   -   -  4 7 mph 1016mb 78f 76f
11:50am 6ft 10s 8s 4 7 mph 1015.8mb 78f 75f
11:40am 6ft  -  8s 4 7 mph 1015.6mb 78f 75f
11:30am  -   -   -  4 7 mph 1015.5mb 78f 75f
11:20am  -   -   -  2 7 mph 1015.5mb 78f 75f
11:10am  -   -   -  4 7 mph 1015.4mb 78f 75f
11:00am  -   -   -  4 7 mph 1015.1mb 78f 75f
10:50am 6.5ft 10s 8s 2 7 mph 1015mb 78f 75f
10:40am 6.5ft  -  8s 4 7 mph 1015mb 78f 75f
10:30am  -   -   -  4 9 mph 1015mb - 75f
10:20am  -   -   -  7 9 mph 1015mb 78f 75f
10:10am  -   -   -  7 9 mph 1015mb 78f 75f
10:00am  -   -   -  7 11 mph 1014.8mb 78f 75f
9:50am 6.5ft 11s 8s 7 11 mph 1014.8mb 78f 75f
9:40am 6.5ft  -  8s 7 11 mph 1014.6mb 78f 75f
9:30am  -   -   -  7 9 mph 1014.5mb 78f 75f
9:20am  -   -   -  7 11 mph 1014.4mb 78f 75f
9:10am  -   -   -  7 9 mph 1014.4mb 78f 75f
9:00am  -   -   -  7 9 mph 1014.1mb 78f 75f
8:50am 6ft 11s 8s 4 9 mph 1014mb 78f 75f
8:40am 6ft  -  8s 4 9 mph 1013.9mb 78f 75f
8:30am  -   -   -  4 9 mph 1013.9mb 78f 75f
8:20am  -   -   -  4 9 mph 1013.9mb 78f 75f
8:10am  -   -   -  4 9 mph 1013.8mb 78f 75f
8:00am  -   -   -  4 7 mph 1013.6mb 78f 75f
7:50am 6ft 10s 8s 4 7 mph 1013.8mb 78f 75f
7:40am 6ft  -  8s 4 7 mph 1013.6mb 78f 75f
7:30am  -   -   -  4 7 mph 1013.8mb 78f 75f
7:20am  -   -   -  4 7 mph 1013.8mb 78f 75f
7:10am  -   -   -  4 9 mph 1013.9mb 78f 75f
7:00am  -   -   -  4 7 mph 1013.9mb 78f 75f
6:50am 6.5ft 10s 8s 4 7 mph 1013.9mb 78f 75f
6:40am 6.5ft  -  8s 4 7 mph 1013.9mb 78f 75f
6:30am  -   -   -  2 4 mph 1013.9mb 78f 75f
6:20am  -   -   -  2 7 mph 1013.9mb 78f 75f
6:10am  -   -   -   -  2 mph 1013.9mb 78f 75f
6:00am  -   -   -   -  2 mph 1014mb 78f 76f
5:50am 6ft 11s 8s  -  2 mph 1014.1mb 78f 76f
5:40am 6ft  -  8s  -  2 mph 1014.4mb 78f 76f
5:30am  -   -   -   -  4 mph 1014.4mb 78f 76f
5:20am  -   -   -  2 4 mph 1014.5mb 78f 76f
5:10am  -   -   -   -  2 mph 1014.5mb 78f 76f
5:00am  -   -   -   -  2 mph 1014.5mb 78f 76f
4:50am 6ft 11s 8s 2 4 mph 1014.5mb 78f 76f
4:40am 6ft  -  8s 2 4 mph 1014.5mb 78f 76f
4:30am  -   -   -  2 7 mph 1014.6mb 78f 76f
4:20am  -   -   -  2 7 mph 1014.9mb 78f 76f
4:10am  -   -   -  4 7 mph 1014.9mb 78f 76f
4:00am  -   -   -  4 7 mph 1015mb 78f 76f
3:50am 7ft 11s 8s 4 7 mph 1015mb 78f 76f
3:40am 7ft  -  8s 4 7 mph 1015mb 78f 76f
3:30am  -   -   -  2 4 mph 1015mb 78f 76f
3:20am  -   -   -  4
mph
1015.3mb 78f 76f
3:10am  -   -   -  2 7 mph 1015.3mb 78f 76f
3:00am  -   -   -  2 7 mph 1015.3mb 78f 76f
2:50am 6.5ft 10s 8s 2 7 mph 1015.3mb 78f 76f
2:40am  -   -   -  4 7 mph 1015.3mb 78f 76f
2:30am  -   -   -  4 7 mph 1015.3mb 78f 76f
2:20am  -   -   -  4 7 mph 1015.3mb 78f 76f
2:10am  -   -   -  4 7 mph 1015.3mb 78f 76f
2:00am  -   -   -  2 7 mph 1015.3mb 78f 76f
1:50am 6.5ft 10s 8s 2 7 mph 1015.3mb 78f 76f
1:40am  -   -   -  2 7 mph 1015.3mb 78f 76f
1:30am  -   -   -  2 7 mph 1015.4mb 78f 76f
1:20am  -   -   -  4 7 mph 1015.3mb 78f 76f
1:10am  -   -   -  4 9 mph 1015.3mb 78f 75f
1:00am  -   -   -  7 11 mph 1015.1mb 78f 76f
12:50am 7ft 10s 8s 7 9 mph 1015.1mb 78f 76f
12:40am  -   -   -  7 9 mph 1015.1mb 78f 76f
12:30am  -   -   -  4 9 mph 1015.1mb 78f 76f
12:20am  -   -   -  4 7 mph 1015.1mb 78f 76f
12:10am  -   -   -  2 4 mph 1015mb 78f 75f
12:00am  -   -   -  2 7 mph 1015mb 78f 75f
Sat 01/21 11:50pm 7ft 10s 8s 4 7 mph 1015mb 78f 75f
11:40pm 7ft  -  8s 4 7 mph 1014.9mb 78f 75f
11:30pm  -   -   -  7 11 mph 1014.8mb 78f 75f
11:20pm  -   -   -  7 9 mph 1014.5mb 78f 75f
11:10pm  -   -   -  7 11 mph 1014.4mb 78f 75f
11:00pm  -   -   -  4 7 mph 1014.3mb 78f 75f
10:50pm 7ft 10s 8s 4 7 mph 1014.3mb 78f 75f
10:40pm 7ft  -  8s 4 7 mph 1014.1mb 78f 75f
10:30pm  -   -   -  2 7 mph 1014.1mb 78f 75f
10:20pm  -   -   -  2 7 mph 1014mb 78f 75f
10:10pm  -   -   -  2 7 mph 1014mb 78f 75f
10:00pm  -   -   -  2 4 mph 1014mb 78f 75f
9:50pm 7.5ft 10s 9s  -  4 mph 1013.8mb 78f 75f
9:40pm  -   -   -   -  4 mph 1013.9mb 78f 75f
9:30pm  -   -   -  2 4 mph 1013.6mb 78f 76f
9:20pm  -   -   -   -  2 mph 1013.6mb 78f 76f
9:10pm  -   -   -   -  4 mph 1013.5mb 78f 76f
9:00pm  -   -   -   -  2 mph 1013.8mb 78f 77f
8:50pm 7ft 11s 8s  -  4 mph 1013.6mb 78f 77f
8:40pm 7ft  -  8s  -  2 mph 1013.8mb 78f 77f
8:30pm  -   -   -   -  2 mph 1013.8mb 78f 77f
8:20pm  -   -   -  2 4 mph 1013.6mb 78f 76f
8:10pm  -   -   -  2 7 mph 1013.8mb 78f 76f
8:00pm  -   -   -  4 7 mph 1013.8mb 78f 76f
7:50pm 7ft 11s 8s 4 7 mph 1013.8mb 78f 76f
7:40pm 7ft  -  8s 4 7 mph 1013.8mb 78f 76f
7:30pm  -   -   -  4 7 mph 1013.8mb 78f 76f
7:20pm  -   -   -  2 7 mph 1013.5mb 78f 76f
7:10pm  -   -   -  2 4 mph 1013.5mb 78f 76f
7:00pm  -   -   -  2 4 mph 1013.5mb 78f 75f
6:50pm 6.5ft 11s 8s 4 9 mph 1013.6mb 78f 75f
6:40pm 6.5ft  -  8s 4 9 mph 1013.6mb 78f 75f
6:30pm  -   -   -  4 9 mph 1013.6mb 78f 75f
6:20pm  -   -   -  4 7 mph 1013.6mb 78f 74f
6:10pm  -   -   -  2 7 mph 1013.6mb 78f 74f
6:00pm  -   -   -  2 4 mph 1013.8mb 78f 74f
5:50pm 6ft 11s 8s 4 7 mph 1013.8mb 78f 73f
5:40pm 6ft  -  8s 4 7 mph 1013.8mb 78f 74f
5:30pm  -   -   -  2 4 mph 1013.9mb 78f 73f
5:20pm  -   -   -  4
mph
1014mb 78f 73f
5:10pm  -   -   -  4 7 mph 1014mb 78f 73f
5:00pm  -   -   -  4 9 mph 1014.3mb 78f 72f
4:50pm 7.5ft 11s 8s 4 9 mph 1014.5mb 78f 71f
4:40pm 7.5ft  -  8s 4 9 mph 1014.6mb 78f 71f
4:30pm  -   -   -  7 9 mph 1015mb 79f 71f
4:20pm  -   -   -  11 16 mph 1015mb 78f 72f
4:10pm  -   -   -  16 22 mph 1015.1mb 78f 73f
4:00pm  -   -   -  18 25 mph 1015.1mb 79f 74f
3:50pm 6.5ft 11s 8s 7 20 mph 1015.4mb 78f 76f
3:40pm 6.5ft  -  8s 4 7 mph 1015.6mb 78f 76f
3:30pm  -   -   -  2 4 mph 1015.9mb 78f 76f
3:20pm  -   -   -  4 7 mph 1016mb 78f 76f
3:10pm  -   -   -  2 4 mph 1016.1mb 78f 77f
3:00pm  -   -   -  2 7 mph 1016.1mb 78f 77f
2:50pm 7ft 11s 8s 2 4 mph 1016.5mb 78f 77f
2:40pm 7ft  -  8s 2 7 mph 1016.5mb 78f 77f
2:30pm  -   -   -  4 7 mph 1016.5mb 78f 77f
2:20pm  -   -   -  4 7 mph 1016.5mb 78f 77f
2:10pm  -   -   -  4 9 mph 1016.5mb 78f 76f
2:00pm  -   -   -  4 7 mph 1016.5mb 78f 77f
1:50pm 6ft 11s 8s 2 4 mph 1016.5mb 78f 77f
1:40pm  -   -   -  2 4 mph 1016.5mb 78f 77f
1:30pm  -   -   -   -  2 mph 1016.5mb 78f 77f
1:20pm  -   -   -  2 4 mph 1016.4mb 78f 77f
1:10pm  -   -   -  2 4 mph 1016.3mb 78f 77f
1:00pm  -   -   -   -  4 mph 1016mb 78f 77f
12:50pm 7ft  -  8s  -  2 mph 1016mb - 77f
12:40pm 7ft 11s 8s  -  mph - 78f -
12:30pm  -   -   -  2 4 mph 1016.1mb - 77f
12:20pm  -   -   -   -  2 mph 1015.5mb 78f 77f
12:10pm  -   -   -   -  2 mph 1015.1mb 78f 77f
12:00pm  -   -   -   -  2 mph 1015mb 78f 77f
11:50am 7ft 11s 8s  -  2 mph 1014.9mb 78f 76f
11:40am 7ft  -  8s  -  2 mph 1014.8mb 78f 76f
11:30am  -   -   -   -  2 mph 1014.6mb 78f 76f
11:20am  -   -   -   -  2 mph 1014.6mb 78f 76f
11:10am  -   -   -   -  4 mph 1014.5mb 78f 75f
11:00am  -   -   -   -  4 mph 1014.4mb 78f 75f
10:50am 6.5ft 11s 8s 2 4 mph 1014.4mb 78f 75f
10:40am 6.5ft  -  8s 2 4 mph 1014.4mb 78f 75f
10:30am  -   -   -  2 4 mph 1014.4mb 78f 75f
10:20am  -   -   -  4 7 mph 1014.3mb 78f 75f
10:10am  -   -   -  4 7 mph 1014.1mb 78f 75f
10:00am  -   -   -  4 7 mph 1014.1mb 78f 75f
9:50am 6ft 11s 8s 4 7 mph 1014.1mb 78f 75f
9:40am  -   -   -  2 7 mph 1014mb 78f 75f
9:30am  -   -   -  2 7 mph 1014mb 78f 75f
9:20am  -   -   -  4 7 mph 1013.9mb 78f 76f
9:10am  -   -   -  4 7 mph 1013.8mb 78f 76f
9:00am  -   -   -  4 9 mph 1013.8mb 78f 76f
8:50am 7ft 11s 8s 7 9 mph 1013.8mb 78f 76f
8:40am  -   -   -  7 9 mph 1013.5mb 78f 76f
8:30am  -   -   -  7 11 mph 1013.5mb 78f 76f
8:20am  -   -   -  7 9 mph 1013.5mb 78f 76f
8:10am  -   -   -  7 9 mph 1013.5mb 78f 76f
8:00am  -   -   -  7 11 mph 1013.5mb 78f 76f
7:50am 6.5ft 11s 8s 9 11 mph 1013.5mb 78f 76f
7:40am 6.5ft  -  8s 9 11 mph 1013.5mb 78f 76f
7:30am  -   -   -  9 11 mph 1013.6mb 78f 76f
7:20am  -   -   -  9 11 mph 1013.5mb 78f 76f
7:10am  -   -   -  9 11 mph 1013.5mb 78f 76f
7:00am  -   -   -  7 11 mph 1013.5mb 78f 76f
6:50am 6ft 11s 7s 7 11 mph 1013.5mb 78f 76f
6:40am  -   -   -  7 11 mph 1013.6mb 78f 76f
6:30am  -   -   -  2 4 mph 1013.8mb 78f 75f
6:20am  -   -   -  2 4 mph 1013.9mb 78f 75f
6:10am  -   -   -  2 4 mph 1013.9mb 78f 75f
6:00am  -   -   -  4
mph
1014mb 78f 75f
5:50am 6ft 9s 7s 4 7 mph 1014mb 78f 75f
5:40am  -   -   -  4 7 mph 1014.3mb - -
5:30am  -   -   -  4 7 mph 1014.4mb 78f 75f
5:20am  -   -   -  4 7 mph 1014.5mb 78f 75f
5:10am  -   -   -  4 7 mph 1014.5mb 78f 75f
5:00am  -   -   -  4 7 mph 1014.6mb 78f 75f
4:50am 6ft 9s 7s 7 9 mph 1014.8mb 78f 75f
4:40am  -   -   -  4 7 mph 1014.9mb 78f 74f
4:30am  -   -   -  4 7 mph 1014.9mb 78f 73f
4:20am  -   -   -  4 7 mph 1014.9mb 78f 72f
4:10am  -   -   -  2 4 mph 1014.9mb 78f 72f
4:00am  -   -   -  7 11 mph 1015mb 78f 71f
3:50am 6ft 11s 7s 11 16 mph 1015.3mb 78f 73f
3:40am 6ft  -  7s 20 27 mph 1015.3mb 78f 74f
3:30am  -   -   -  9 20 mph 1015.1mb 78f 75f
3:20am  -   -   -  7 11 mph 1015.1mb 78f 75f
3:10am  -   -   -  7 9 mph 1015.3mb 78f 75f
3:00am  -   -   -  7 9 mph 1015.4mb 78f 75f
2:50am 6.5ft 8s 7s 7
mph
1015.3mb 78f 75f
2:40am 6.5ft  -  7s 4 9 mph 1015.4mb 78f 74f
2:30am  -   -   -  7 9 mph 1015.5mb - 74f
2:20am  -   -   -  11 13 mph 1015.5mb 78f 74f
2:10am  -   -   -  16 18 mph 1015.6mb 78f 74f
2:00am  -   -   -  16 20 mph 1015.6mb 78f 74f
1:50am 6ft 9s 6s 18 22 mph 1015.5mb 78f -
1:40am  -   -   -  18 25 mph 1015.5mb 78f 74f
1:30am 6ft  -  6s 18 22 mph 1015.6mb 78f 74f
1:20am  -   -   -  18 22 mph 1015.5mb 78f 73f
1:10am  -   -   -  16 20 mph 1015.5mb 78f 73f
1:00am  -   -   -  13 16 mph 1015.5mb 78f -
12:50am 6.5ft 8s 7s 13 29 mph 1015.6mb 78f 74f
12:40am  -   -   -  7 13 mph 1015.3mb 78f 74f
12:30am  -   -   -  16 25 mph 1015.1mb 78f 75f
12:20am  -   -   -  16 20 mph 1015mb 78f 75f
12:10am  -   -   -  13 20 mph 1014.9mb 78f 77f
12:00am  -   -   -  11 13 mph 1014.9mb 78f 77f
Fri 01/20 11:50pm 5.5ft 9s 6s 11 13 mph 1014.6mb 78f 77f
11:40pm 5.5ft  -  6s 13 16 mph 1014.6mb 78f 77f
11:30pm  -   -   -  13 16 mph 1014.5mb 78f 77f
11:20pm  -   -   -  13 18 mph 1014.4mb 78f 77f
11:10pm  -   -   -  11 16 mph 1014.3mb 78f 77f
11:00pm  -   -   -  13 16 mph 1014.1mb 78f 77f
10:50pm 5ft 8s 6s 13 16 mph 1014mb 78f 77f
10:40pm  -   -   -  11 16 mph 1014mb 78f 77f
10:30pm  -   -   -  13 16 mph 1013.9mb 78f 77f
10:20pm  -   -   -  13 16 mph 1013.8mb 78f 77f
10:10pm  -   -   -  13 18 mph 1013.9mb 78f 77f
10:00pm  -   -   -  13 16 mph 1013.8mb 78f 77f
9:50pm 4.5ft 8s 6s 11 16 mph 1013.6mb 78f 77f
9:40pm 4.5ft  -  6s 11 13 mph 1013.5mb 78f 77f
9:30pm  -   -   -  11 16 mph 1013.5mb 78f 77f
9:20pm  -   -   -  13 16 mph 1013.5mb 78f 77f
9:10pm  -   -   -  13 16 mph 1013.4mb 78f 77f
9:00pm  -   -   -  11 16 mph 1013.4mb 78f 77f
8:50pm 4ft 8s 5s 13 18 mph 1013.3mb 78f 77f
8:40pm 4ft  -  5s 13 16 mph 1013.3mb 78f 77f
8:30pm  -   -   -  13 16 mph 1013mb 78f 77f
8:20pm  -   -   -  13 18 mph 1013mb 78f 77f
8:10pm  -   -   -  13 16 mph 1013mb 78f 77f
8:00pm  -   -   -  13 18 mph 1013mb 78f 77f
7:50pm 3.5ft 7s 5s 13 16 mph 1013mb 78f 77f
7:40pm  -   -   -  13 18 mph 1012.9mb 78f 77f
7:30pm  -   -   -  13 16 mph 1012.9mb 78f 77f
7:20pm  -   -   -  13 16 mph 1013mb 78f 77f
7:10pm  -   -   -  13 16 mph 1013mb 78f 77f
7:00pm  -   -   -  13 18 mph 1013mb 78f 77f
6:50pm 3.5ft 7s 5s 13 18 mph 1013mb 78f 77f
6:40pm  -   -   -  13 16 mph 1013mb 78f 77f
6:30pm  -   -   -  13 20 mph 1013mb 78f 77f
6:20pm  -   -   -  13 18 mph 1013mb 78f 77f
6:10pm  -   -   -  13 16 mph 1013mb 78f 77f
6:00pm  -   -   -  13 16 mph 1013.1mb 78f 77f
5:50pm 3.5ft 8s 5s 13 16 mph 1013.3mb 78f 77f
5:40pm 3.5ft  -  5s 13 16 mph 1013.5mb 78f 77f
5:30pm  -   -   -  13 16 mph 1013.5mb 78f 77f
5:20pm  -   -   -  13 16 mph 1013.6mb 78f 77f
5:10pm  -   -   -  13 18 mph 1013.8mb 78f 77f
5:00pm  -   -   -  13 16 mph 1014mb 78f 77f
4:50pm 3.5ft 8s 5s 13 18 mph 1014mb 78f 77f
4:40pm  -   -   -  13 18 mph 1014.3mb 78f 77f
4:30pm  -   -   -  13 16 mph 1014.4mb 78f 77f
4:20pm  -   -   -  13 18 mph 1014.5mb 78f 77f
4:10pm  -   -   -  13 16 mph 1014.6mb 78f 77f
4:00pm  -   -   -  13 16 mph 1014.8mb 78f 77f
3:50pm 3.5ft 11s 5s 13 18 mph 1014.9mb 78f 76f
3:40pm  -   -   -  13 18 mph 1015mb 78f 76f
3:30pm  -   -   -  13 16 mph 1015.1mb 78f 77f
3:20pm  -   -   -  13 16 mph 1015.3mb 78f 77f
3:10pm  -   -   -  13 16 mph 1015.4mb 78f 76f
3:00pm  -   -   -  13 16 mph 1015.5mb 78f 76f
2:50pm 3.5ft 8s 5s 13 18 mph 1015.5mb 78f 77f
2:40pm  -   -   -  13 18 mph 1015.5mb 78f 76f
2:30pm  -   -   -  13 18 mph 1015.6mb 78f 76f
2:20pm  -   -   -  13 18 mph 1015.6mb 78f 76f
2:10pm  -   -   -  13 16 mph 1015.8mb 78f 76f
2:00pm  -   -   -  13 16 mph 1015.9mb 78f 76f
1:50pm 4ft 8s 6s 13 18 mph 1015.8mb 78f 76f
1:40pm 4ft  -  6s 13 16 mph 1015.8mb 78f 76f
1:30pm  -   -   -  13 16 mph 1015.6mb 78f 76f
1:20pm  -   -   -  13 16 mph 1015.6mb 78f 76f
1:10pm  -   -   -  13 16 mph 1015.5mb 78f 76f
1:00pm  -   -   -  13 18 mph 1015.5mb 78f 76f
12:50pm 3.5ft 13s 6s 13 16 mph 1015.5mb 78f 76f
12:40pm  -   -   -  13 16 mph 1015.4mb 78f 77f
12:30pm  -   -   -  11 16 mph 1015.1mb 78f 76f
12:20pm  -   -   -  11 16 mph 1014.9mb 78f 76f
12:10pm  -   -   -  11 16 mph 1014.6mb 78f 76f
12:00pm  -   -   -  13 16 mph 1014.5mb 78f 76f
11:50am 4ft 8s 6s 11 16 mph 1014.5mb 78f 76f
11:40am 4ft  -  6s 11 16 mph 1014.4mb 78f 76f
11:30am  -   -   -  11 16 mph 1014.5mb 78f 76f
11:20am  -   -   -  11 16 mph 1014.4mb 78f 76f
11:10am  -   -   -  13 16 mph 1014mb 78f 76f
11:00am  -   -   -  13 16 mph 1014mb 78f 76f
10:50am 4ft 12s 6s 13 16 mph 1013.9mb 78f 76f
10:40am 4ft  -  6s 11 16 mph 1013.9mb 78f 76f
10:30am  -   -   -  13 18 mph 1013.9mb 78f 76f
10:20am  -   -   -  13 16 mph 1013.8mb 78f 76f
10:10am  -   -   -  11 16 mph 1013.8mb - 76f
10:00am  -   -   -  11 16 mph 1013.6mb 78f 76f
9:50am 4ft 8s 6s 11 16 mph 1013.5mb 78f 76f
9:40am 4ft  -  6s 11 13 mph 1013.5mb 78f 76f
9:30am  -   -   -  11 16 mph 1013.5mb 78f 76f
9:20am  -   -   -  11 16 mph 1013.4mb 78f 76f
9:10am  -   -   -  13 16 mph 1013.3mb 78f 76f
9:00am  -   -   -  11 16 mph 1013.1mb 78f 76f
8:50am 4ft 8s 7s 11 16 mph 1013mb 78f 76f
8:40am 4ft  -  7s 11 16 mph 1013mb 78f 76f
8:30am  -   -   -  11 16 mph 1013mb 78f 76f
8:20am  -   -   -  11 16 mph 1013mb 78f 76f
8:10am  -   -   -  11 13 mph 1013.1mb 78f 76f
8:00am  -   -   -  11 16 mph 1013.3mb 78f 76f
7:50am 4ft  -  6s 11 16 mph 1013.4mb - 76f
7:40am 4ft  -  6s 11 13 mph 1013.3mb 78f 76f
7:30am  -   -   -  11 16 mph 1013.5mb 78f 76f
7:20am  -   -   -  11 16 mph 1013.5mb 78f 76f
7:10am  -   -   -  11 16 mph 1013.5mb 78f 76f
7:00am  -   -   -  11 13 mph 1013.8mb 78f 76f
6:50am 4ft 9s 7s 11 13 mph 1013.6mb 78f 76f
6:40am  -   -   -  11 13 mph 1013.6mb 78f 76f
6:30am  -   -   -  11 13 mph 1013.9mb 78f 76f
6:20am  -   -   -  11 13 mph 1013.9mb 78f 76f
6:10am  -   -   -  11 13 mph 1013.9mb 78f 76f
6:00am  -   -   -  9 13 mph 1013.9mb 78f 76f
5:50am 4.5ft 10s 7s 11 13 mph 1014mb 78f 76f
5:40am  -   -   -  9 13 mph 1014mb 78f 76f
5:30am  -   -   -  11 13 mph 1014.1mb 78f 76f
5:20am  -   -   -  11 13 mph 1014.1mb 78f 76f
5:10am  -   -   -  11 13 mph 1014.4mb 78f 76f
5:00am  -   -   -  11 13 mph 1014.5mb 78f 76f
4:50am 4.5ft  -  7s 9 13 mph 1014.5mb 78f 76f
4:40am 4.5ft  -  7s 9 13 mph 1014.4mb 78f 76f
4:30am  -   -   -  9 13 mph 1014.5mb 78f 76f
4:20am  -   -   -  9 11 mph 1014.4mb 78f 76f
4:10am  -   -   -  9 11 mph 1014.4mb 78f 76f
4:00am  -   -   -  9 13 mph 1014.5mb 78f 76f
3:50am 4.5ft 8s 7s 11 13 mph 1014.5mb 78f 76f
3:40am 4.5ft  -  7s 9 13 mph 1014.6mb 78f 76f
3:30am  -   -   -  9 13 mph 1014.6mb 78f 76f
3:20am  -   -   -  11 13 mph 1014.6mb 78f 76f
3:10am  -   -   -  11 16 mph 1014.8mb 78f 76f
3:00am  -   -   -  9 11 mph 1014.9mb 78f 76f
2:50am 4.5ft 7s 7s 9 11 mph 1015mb 78f 76f
2:40am 4.5ft  -  7s 9 13 mph 1015.1mb 78f 76f
2:30am  -   -   -  9 13 mph 1015.3mb 78f 76f
2:20am  -   -   -  9 13 mph 1015.3mb 78f 76f
2:10am  -   -   -  9 11 mph 1015.4mb 78f 76f
2:00am  -   -   -  9 13 mph 1015.4mb 78f 76f
1:50am 4.5ft 10s 7s 9 13 mph 1015.4mb 78f 76f